sensor_id;sensor_type;location;lat;lon;timestamp;P1;durP1;ratioP1;P2;durP2;ratioP2
11123;SDS011;5616;42.692;23.312;2023-07-22T00:02:17;14.85;;;5.53;;
11123;SDS011;5616;42.692;23.312;2023-07-22T00:04:45;12.43;;;5.72;;
11123;SDS011;5616;42.692;23.312;2023-07-22T00:07:12;13.32;;;6.15;;
11123;SDS011;5616;42.692;23.312;2023-07-22T00:09:38;6.88;;;5.15;;
11123;SDS011;5616;42.692;23.312;2023-07-22T00:12:07;9.20;;;5.63;;
11123;SDS011;5616;42.692;23.312;2023-07-22T00:14:34;8.70;;;5.78;;
11123;SDS011;5616;42.692;23.312;2023-07-22T00:17:01;9.05;;;5.30;;
11123;SDS011;5616;42.692;23.312;2023-07-22T00:19:27;9.38;;;5.72;;
11123;SDS011;5616;42.692;23.312;2023-07-22T00:21:55;11.50;;;5.50;;
11123;SDS011;5616;42.692;23.312;2023-07-22T00:24:22;9.77;;;5.70;;
11123;SDS011;5616;42.692;23.312;2023-07-22T00:26:48;12.10;;;5.78;;
11123;SDS011;5616;42.692;23.312;2023-07-22T00:29:15;8.20;;;5.35;;
11123;SDS011;5616;42.692;23.312;2023-07-22T00:31:42;9.35;;;5.70;;
11123;SDS011;5616;42.692;23.312;2023-07-22T00:34:09;9.98;;;5.40;;
11123;SDS011;5616;42.692;23.312;2023-07-22T00:36:35;12.07;;;5.95;;
11123;SDS011;5616;42.692;23.312;2023-07-22T00:39:04;9.00;;;5.68;;
11123;SDS011;5616;42.692;23.312;2023-07-22T00:41:31;8.95;;;5.55;;
11123;SDS011;5616;42.692;23.312;2023-07-22T00:43:57;9.85;;;5.32;;
11123;SDS011;5616;42.692;23.312;2023-07-22T00:46:24;8.50;;;5.50;;
11123;SDS011;5616;42.692;23.312;2023-07-22T00:48:50;11.73;;;5.13;;
11123;SDS011;5616;42.692;23.312;2023-07-22T00:51:17;9.95;;;5.60;;
11123;SDS011;5616;42.692;23.312;2023-07-22T00:53:44;7.10;;;5.32;;
11123;SDS011;5616;42.692;23.312;2023-07-22T00:56:12;11.18;;;5.63;;
11123;SDS011;5616;42.692;23.312;2023-07-22T00:58:39;9.98;;;5.45;;
11123;SDS011;5616;42.692;23.312;2023-07-22T01:01:05;8.18;;;5.05;;
11123;SDS011;5616;42.692;23.312;2023-07-22T01:03:32;11.32;;;5.07;;
11123;SDS011;5616;42.692;23.312;2023-07-22T01:05:58;8.82;;;5.18;;
11123;SDS011;5616;42.692;23.312;2023-07-22T01:08:26;8.07;;;5.40;;
11123;SDS011;5616;42.692;23.312;2023-07-22T01:10:52;9.07;;;5.70;;
11123;SDS011;5616;42.692;23.312;2023-07-22T01:13:21;6.47;;;4.82;;
11123;SDS011;5616;42.692;23.312;2023-07-22T01:15:47;9.63;;;5.35;;
11123;SDS011;5616;42.692;23.312;2023-07-22T01:18:14;9.40;;;5.30;;
11123;SDS011;5616;42.692;23.312;2023-07-22T01:20:41;10.85;;;5.13;;
11123;SDS011;5616;42.692;23.312;2023-07-22T01:23:09;7.75;;;5.05;;
11123;SDS011;5616;42.692;23.312;2023-07-22T01:25:36;12.25;;;5.40;;
11123;SDS011;5616;42.692;23.312;2023-07-22T01:28:03;10.88;;;4.95;;
11123;SDS011;5616;42.692;23.312;2023-07-22T01:30:35;9.40;;;5.53;;
11123;SDS011;5616;42.692;23.312;2023-07-22T01:33:01;9.98;;;5.50;;
11123;SDS011;5616;42.692;23.312;2023-07-22T01:35:28;9.30;;;5.18;;
11123;SDS011;5616;42.692;23.312;2023-07-22T01:37:54;10.38;;;5.68;;
11123;SDS011;5616;42.692;23.312;2023-07-22T01:40:23;10.37;;;5.80;;
11123;SDS011;5616;42.692;23.312;2023-07-22T01:42:50;9.57;;;5.60;;
11123;SDS011;5616;42.692;23.312;2023-07-22T01:45:17;9.05;;;5.20;;
11123;SDS011;5616;42.692;23.312;2023-07-22T01:47:44;9.23;;;5.53;;
11123;SDS011;5616;42.692;23.312;2023-07-22T01:50:10;8.88;;;5.28;;
11123;SDS011;5616;42.692;23.312;2023-07-22T01:52:37;10.80;;;5.75;;
11123;SDS011;5616;42.692;23.312;2023-07-22T01:55:04;7.72;;;5.38;;
11123;SDS011;5616;42.692;23.312;2023-07-22T01:57:32;11.00;;;5.40;;
11123;SDS011;5616;42.692;23.312;2023-07-22T02:00:02;11.10;;;5.20;;
11123;SDS011;5616;42.692;23.312;2023-07-22T02:02:38;8.55;;;5.68;;
11123;SDS011;5616;42.692;23.312;2023-07-22T02:05:05;8.37;;;5.33;;
11123;SDS011;5616;42.692;23.312;2023-07-22T02:07:31;8.90;;;5.80;;
11123;SDS011;5616;42.692;23.312;2023-07-22T02:09:58;10.35;;;5.35;;
11123;SDS011;5616;42.692;23.312;2023-07-22T02:12:24;7.70;;;4.90;;
11123;SDS011;5616;42.692;23.312;2023-07-22T02:14:52;8.40;;;4.90;;
11123;SDS011;5616;42.692;23.312;2023-07-22T02:17:19;9.60;;;4.90;;
11123;SDS011;5616;42.692;23.312;2023-07-22T02:19:46;7.43;;;4.97;;
11123;SDS011;5616;42.692;23.312;2023-07-22T02:22:13;6.07;;;4.63;;
11123;SDS011;5616;42.692;23.312;2023-07-22T02:24:40;6.15;;;4.95;;
11123;SDS011;5616;42.692;23.312;2023-07-22T02:27:06;6.57;;;5.28;;
11123;SDS011;5616;42.692;23.312;2023-07-22T02:29:33;12.50;;;6.10;;
11123;SDS011;5616;42.692;23.312;2023-07-22T02:32:02;9.95;;;5.90;;
11123;SDS011;5616;42.692;23.312;2023-07-22T02:34:29;11.77;;;6.20;;
11123;SDS011;5616;42.692;23.312;2023-07-22T02:36:56;11.15;;;6.00;;
11123;SDS011;5616;42.692;23.312;2023-07-22T02:39:22;12.30;;;5.40;;
11123;SDS011;5616;42.692;23.312;2023-07-22T02:41:49;8.83;;;5.60;;
11123;SDS011;5616;42.692;23.312;2023-07-22T02:44:15;10.50;;;5.80;;
11123;SDS011;5616;42.692;23.312;2023-07-22T02:46:42;8.50;;;5.67;;
11123;SDS011;5616;42.692;23.312;2023-07-22T02:49:10;8.17;;;6.33;;
11123;SDS011;5616;42.692;23.312;2023-07-22T02:51:37;8.97;;;5.73;;
11123;SDS011;5616;42.692;23.312;2023-07-22T02:54:03;12.47;;;5.90;;
11123;SDS011;5616;42.692;23.312;2023-07-22T02:56:30;10.83;;;5.90;;
11123;SDS011;5616;42.692;23.312;2023-07-22T02:58:56;10.83;;;5.80;;
11123;SDS011;5616;42.692;23.312;2023-07-22T03:01:23;11.57;;;6.30;;
11123;SDS011;5616;42.692;23.312;2023-07-22T03:03:49;7.93;;;6.17;;
11123;SDS011;5616;42.692;23.312;2023-07-22T03:06:17;10.57;;;6.37;;
11123;SDS011;5616;42.692;23.312;2023-07-22T03:08:44;9.63;;;5.83;;
11123;SDS011;5616;42.692;23.312;2023-07-22T03:11:11;10.27;;;6.23;;
11123;SDS011;5616;42.692;23.312;2023-07-22T03:13:37;13.77;;;6.10;;
11123;SDS011;5616;42.692;23.312;2023-07-22T03:16:04;10.93;;;5.83;;
11123;SDS011;5616;42.692;23.312;2023-07-22T03:18:30;11.40;;;6.60;;
11123;SDS011;5616;42.692;23.312;2023-07-22T03:20:57;11.03;;;6.17;;
11123;SDS011;5616;42.692;23.312;2023-07-22T03:23:25;9.33;;;5.80;;
11123;SDS011;5616;42.692;23.312;2023-07-22T03:25:51;11.37;;;5.80;;
11123;SDS011;5616;42.692;23.312;2023-07-22T03:28:17;12.73;;;6.57;;
11123;SDS011;5616;42.692;23.312;2023-07-22T03:30:44;9.10;;;5.93;;
11123;SDS011;5616;42.692;23.312;2023-07-22T03:33:10;10.67;;;6.43;;
11123;SDS011;5616;42.692;23.312;2023-07-22T03:35:37;7.63;;;5.50;;
11123;SDS011;5616;42.692;23.312;2023-07-22T03:38:04;12.47;;;6.73;;
11123;SDS011;5616;42.692;23.312;2023-07-22T03:40:32;11.77;;;5.63;;
11123;SDS011;5616;42.692;23.312;2023-07-22T03:42:59;9.00;;;6.20;;
11123;SDS011;5616;42.692;23.312;2023-07-22T03:45:25;7.27;;;5.80;;
11123;SDS011;5616;42.692;23.312;2023-07-22T03:47:53;10.33;;;5.73;;
11123;SDS011;5616;42.692;23.312;2023-07-22T03:50:20;9.50;;;5.40;;
11123;SDS011;5616;42.692;23.312;2023-07-22T03:52:46;11.37;;;6.53;;
11123;SDS011;5616;42.692;23.312;2023-07-22T03:55:13;11.70;;;5.70;;
11123;SDS011;5616;42.692;23.312;2023-07-22T03:57:41;11.10;;;6.10;;
11123;SDS011;5616;42.692;23.312;2023-07-22T04:00:08;9.27;;;6.13;;
11123;SDS011;5616;42.692;23.312;2023-07-22T04:02:39;10.30;;;5.70;;
11123;SDS011;5616;42.692;23.312;2023-07-22T04:05:06;8.97;;;5.70;;
11123;SDS011;5616;42.692;23.312;2023-07-22T04:07:33;9.87;;;5.73;;
11123;SDS011;5616;42.692;23.312;2023-07-22T04:09:59;10.70;;;5.83;;
11123;SDS011;5616;42.692;23.312;2023-07-22T04:12:26;9.10;;;5.67;;
11123;SDS011;5616;42.692;23.312;2023-07-22T04:14:54;6.83;;;5.63;;
11123;SDS011;5616;42.692;23.312;2023-07-22T04:17:20;14.43;;;5.83;;
11123;SDS011;5616;42.692;23.312;2023-07-22T04:19:47;11.40;;;5.57;;
11123;SDS011;5616;42.692;23.312;2023-07-22T04:22:13;10.27;;;6.37;;
11123;SDS011;5616;42.692;23.312;2023-07-22T04:24:40;11.33;;;6.00;;
11123;SDS011;5616;42.692;23.312;2023-07-22T04:27:06;12.27;;;6.83;;
11123;SDS011;5616;42.692;23.312;2023-07-22T04:29:33;11.60;;;6.20;;
11123;SDS011;5616;42.692;23.312;2023-07-22T04:32:05;8.70;;;5.90;;
11123;SDS011;5616;42.692;23.312;2023-07-22T04:34:32;12.40;;;6.10;;
11123;SDS011;5616;42.692;23.312;2023-07-22T04:36:59;10.07;;;5.73;;
11123;SDS011;5616;42.692;23.312;2023-07-22T04:39:27;11.35;;;6.15;;
11123;SDS011;5616;42.692;23.312;2023-07-22T04:41:53;8.57;;;6.30;;
11123;SDS011;5616;42.692;23.312;2023-07-22T04:44:20;10.02;;;6.38;;
11123;SDS011;5616;42.692;23.312;2023-07-22T04:46:46;9.18;;;6.03;;
11123;SDS011;5616;42.692;23.312;2023-07-22T04:49:14;11.32;;;6.60;;
11123;SDS011;5616;42.692;23.312;2023-07-22T04:51:44;12.93;;;5.72;;
11123;SDS011;5616;42.692;23.312;2023-07-22T04:54:10;11.25;;;6.18;;
11123;SDS011;5616;42.692;23.312;2023-07-22T04:56:37;8.80;;;6.25;;
11123;SDS011;5616;42.692;23.312;2023-07-22T04:59:04;11.02;;;6.28;;
11123;SDS011;5616;42.692;23.312;2023-07-22T05:01:30;8.32;;;5.93;;
11123;SDS011;5616;42.692;23.312;2023-07-22T05:03:57;8.73;;;6.68;;
11123;SDS011;5616;42.692;23.312;2023-07-22T05:06:25;10.13;;;6.20;;
11123;SDS011;5616;42.692;23.312;2023-07-22T05:08:51;9.32;;;6.03;;
11123;SDS011;5616;42.692;23.312;2023-07-22T05:11:18;8.40;;;6.20;;
11123;SDS011;5616;42.692;23.312;2023-07-22T05:13:44;11.48;;;7.50;;
11123;SDS011;5616;42.692;23.312;2023-07-22T05:16:11;10.20;;;5.57;;
11123;SDS011;5616;42.692;23.312;2023-07-22T05:18:37;12.13;;;6.53;;
11123;SDS011;5616;42.692;23.312;2023-07-22T05:21:04;13.23;;;6.60;;
11123;SDS011;5616;42.692;23.312;2023-07-22T05:23:32;15.57;;;8.10;;
11123;SDS011;5616;42.692;23.312;2023-07-22T05:25:58;11.63;;;8.05;;
11123;SDS011;5616;42.692;23.312;2023-07-22T05:28:25;11.20;;;8.02;;
11123;SDS011;5616;42.692;23.312;2023-07-22T05:30:51;11.80;;;8.25;;
11123;SDS011;5616;42.692;23.312;2023-07-22T05:33:20;11.27;;;7.68;;
11123;SDS011;5616;42.692;23.312;2023-07-22T05:35:47;17.27;;;8.20;;
11123;SDS011;5616;42.692;23.312;2023-07-22T05:38:13;13.43;;;9.18;;
11123;SDS011;5616;42.692;23.312;2023-07-22T05:40:41;14.48;;;8.50;;
11123;SDS011;5616;42.692;23.312;2023-07-22T05:43:08;14.85;;;7.68;;
11123;SDS011;5616;42.692;23.312;2023-07-22T05:45:34;15.25;;;7.70;;
11123;SDS011;5616;42.692;23.312;2023-07-22T05:48:01;14.93;;;7.85;;
11123;SDS011;5616;42.692;23.312;2023-07-22T05:50:27;14.65;;;7.60;;
11123;SDS011;5616;42.692;23.312;2023-07-22T05:52:54;11.63;;;7.72;;
11123;SDS011;5616;42.692;23.312;2023-07-22T05:55:21;10.73;;;7.82;;
11123;SDS011;5616;42.692;23.312;2023-07-22T05:57:48;11.00;;;8.02;;
11123;SDS011;5616;42.692;23.312;2023-07-22T06:00:15;14.82;;;7.93;;
11123;SDS011;5616;42.692;23.312;2023-07-22T06:02:42;11.68;;;7.20;;
11123;SDS011;5616;42.692;23.312;2023-07-22T06:05:09;10.32;;;8.05;;
11123;SDS011;5616;42.692;23.312;2023-07-22T06:07:35;23.98;;;7.22;;
11123;SDS011;5616;42.692;23.312;2023-07-22T06:10:03;11.65;;;7.35;;
11123;SDS011;5616;42.692;23.312;2023-07-22T06:12:29;12.23;;;7.57;;
11123;SDS011;5616;42.692;23.312;2023-07-22T06:14:57;9.88;;;7.03;;
11123;SDS011;5616;42.692;23.312;2023-07-22T06:17:24;15.32;;;6.45;;
11123;SDS011;5616;42.692;23.312;2023-07-22T06:19:50;10.95;;;6.13;;
11123;SDS011;5616;42.692;23.312;2023-07-22T06:22:17;9.25;;;6.60;;
11123;SDS011;5616;42.692;23.312;2023-07-22T06:24:44;10.18;;;6.05;;
11123;SDS011;5616;42.692;23.312;2023-07-22T06:27:10;8.80;;;5.80;;
11123;SDS011;5616;42.692;23.312;2023-07-22T06:29:37;10.65;;;6.28;;
11123;SDS011;5616;42.692;23.312;2023-07-22T06:32:05;11.30;;;6.78;;
11123;SDS011;5616;42.692;23.312;2023-07-22T06:34:32;10.75;;;6.57;;
11123;SDS011;5616;42.692;23.312;2023-07-22T06:36:58;10.55;;;6.35;;
11123;SDS011;5616;42.692;23.312;2023-07-22T06:39:25;9.60;;;6.07;;
11123;SDS011;5616;42.692;23.312;2023-07-22T06:41:51;11.13;;;6.07;;
11123;SDS011;5616;42.692;23.312;2023-07-22T06:44:18;7.35;;;5.63;;
11123;SDS011;5616;42.692;23.312;2023-07-22T06:46:44;15.10;;;6.93;;
11123;SDS011;5616;42.692;23.312;2023-07-22T06:49:13;10.32;;;5.85;;
11123;SDS011;5616;42.692;23.312;2023-07-22T06:51:39;8.93;;;5.82;;
11123;SDS011;5616;42.692;23.312;2023-07-22T06:54:06;8.95;;;5.93;;
11123;SDS011;5616;42.692;23.312;2023-07-22T06:56:32;12.32;;;6.40;;
11123;SDS011;5616;42.692;23.312;2023-07-22T06:58:59;12.73;;;6.25;;
11123;SDS011;5616;42.692;23.312;2023-07-22T07:01:25;8.13;;;5.20;;
11123;SDS011;5616;42.692;23.312;2023-07-22T07:03:52;10.10;;;6.00;;
11123;SDS011;5616;42.692;23.312;2023-07-22T07:06:20;8.30;;;5.55;;
11123;SDS011;5616;42.692;23.312;2023-07-22T07:08:46;8.90;;;5.82;;
11123;SDS011;5616;42.692;23.312;2023-07-22T07:11:14;9.82;;;5.40;;
11123;SDS011;5616;42.692;23.312;2023-07-22T07:13:40;12.02;;;6.10;;
11123;SDS011;5616;42.692;23.312;2023-07-22T07:16:19;6.95;;;5.38;;
11123;SDS011;5616;42.692;23.312;2023-07-22T07:18:46;11.35;;;5.70;;
11123;SDS011;5616;42.692;23.312;2023-07-22T07:21:13;11.13;;;5.97;;
11123;SDS011;5616;42.692;23.312;2023-07-22T07:23:41;11.68;;;5.45;;
11123;SDS011;5616;42.692;23.312;2023-07-22T07:26:07;9.15;;;5.20;;
11123;SDS011;5616;42.692;23.312;2023-07-22T07:28:34;7.75;;;4.95;;
11123;SDS011;5616;42.692;23.312;2023-07-22T07:31:00;11.10;;;5.05;;
11123;SDS011;5616;42.692;23.312;2023-07-22T07:33:28;6.93;;;4.75;;
11123;SDS011;5616;42.692;23.312;2023-07-22T07:35:54;10.88;;;5.00;;
11123;SDS011;5616;42.692;23.312;2023-07-22T07:38:21;10.55;;;5.10;;
11123;SDS011;5616;42.692;23.312;2023-07-22T07:40:52;9.63;;;4.75;;
11123;SDS011;5616;42.692;23.312;2023-07-22T07:43:19;7.30;;;4.53;;
11123;SDS011;5616;42.692;23.312;2023-07-22T07:45:45;6.95;;;4.45;;
11123;SDS011;5616;42.692;23.312;2023-07-22T07:48:12;6.82;;;4.80;;
11123;SDS011;5616;42.692;23.312;2023-07-22T07:50:38;9.82;;;4.65;;
11123;SDS011;5616;42.692;23.312;2023-07-22T07:53:05;16.42;;;4.85;;
11123;SDS011;5616;42.692;23.312;2023-07-22T07:55:31;13.85;;;4.78;;
11123;SDS011;5616;42.692;23.312;2023-07-22T07:57:59;9.60;;;4.82;;
11123;SDS011;5616;42.692;23.312;2023-07-22T08:00:26;8.95;;;4.30;;
11123;SDS011;5616;42.692;23.312;2023-07-22T08:02:52;7.72;;;4.80;;
11123;SDS011;5616;42.692;23.312;2023-07-22T08:05:19;7.43;;;4.85;;
11123;SDS011;5616;42.692;23.312;2023-07-22T08:07:46;7.78;;;5.28;;
11123;SDS011;5616;42.692;23.312;2023-07-22T08:10:13;9.85;;;4.72;;
11123;SDS011;5616;42.692;23.312;2023-07-22T08:12:40;12.80;;;5.00;;
11123;SDS011;5616;42.692;23.312;2023-07-22T08:15:08;6.85;;;4.68;;
11123;SDS011;5616;42.692;23.312;2023-07-22T08:17:34;12.10;;;5.22;;
11123;SDS011;5616;42.692;23.312;2023-07-22T08:20:01;7.43;;;4.63;;
11123;SDS011;5616;42.692;23.312;2023-07-22T08:22:31;8.38;;;5.20;;
11123;SDS011;5616;42.692;23.312;2023-07-22T08:24:57;7.07;;;5.03;;
11123;SDS011;5616;42.692;23.312;2023-07-22T08:27:24;7.55;;;4.60;;
11123;SDS011;5616;42.692;23.312;2023-07-22T08:29:50;8.07;;;5.10;;
11123;SDS011;5616;42.692;23.312;2023-07-22T08:32:18;8.15;;;4.85;;
11123;SDS011;5616;42.692;23.312;2023-07-22T08:34:45;9.00;;;6.05;;
11123;SDS011;5616;42.692;23.312;2023-07-22T08:37:11;9.70;;;4.75;;
11123;SDS011;5616;42.692;23.312;2023-07-22T08:39:38;6.25;;;4.93;;
11123;SDS011;5616;42.692;23.312;2023-07-22T08:42:05;6.53;;;4.80;;
11123;SDS011;5616;42.692;23.312;2023-07-22T08:44:32;12.43;;;5.38;;
11123;SDS011;5616;42.692;23.312;2023-07-22T08:47:00;7.45;;;5.15;;
11123;SDS011;5616;42.692;23.312;2023-07-22T08:49:30;10.82;;;6.90;;
11123;SDS011;5616;42.692;23.312;2023-07-22T08:51:57;6.53;;;5.22;;
11123;SDS011;5616;42.692;23.312;2023-07-22T08:54:24;7.88;;;5.15;;
11123;SDS011;5616;42.692;23.312;2023-07-22T08:56:50;6.80;;;4.70;;
11123;SDS011;5616;42.692;23.312;2023-07-22T08:59:17;10.25;;;5.28;;
11123;SDS011;5616;42.692;23.312;2023-07-22T09:01:44;8.35;;;5.18;;
11123;SDS011;5616;42.692;23.312;2023-07-22T09:04:11;9.15;;;5.53;;
11123;SDS011;5616;42.692;23.312;2023-07-22T09:06:39;9.45;;;5.57;;
11123;SDS011;5616;42.692;23.312;2023-07-22T09:09:07;7.75;;;5.15;;
11123;SDS011;5616;42.692;23.312;2023-07-22T09:11:35;9.93;;;4.72;;
11123;SDS011;5616;42.692;23.312;2023-07-22T09:14:02;10.23;;;5.53;;
11123;SDS011;5616;42.692;23.312;2023-07-22T09:16:29;8.45;;;5.38;;
11123;SDS011;5616;42.692;23.312;2023-07-22T09:18:57;10.88;;;5.00;;
11123;SDS011;5616;42.692;23.312;2023-07-22T09:21:23;6.68;;;5.28;;
11123;SDS011;5616;42.692;23.312;2023-07-22T09:23:51;7.90;;;5.40;;
11123;SDS011;5616;42.692;23.312;2023-07-22T09:26:18;9.20;;;5.63;;
11123;SDS011;5616;42.692;23.312;2023-07-22T09:28:49;9.07;;;5.47;;
11123;SDS011;5616;42.692;23.312;2023-07-22T09:31:16;9.60;;;5.35;;
11123;SDS011;5616;42.692;23.312;2023-07-22T09:33:43;8.40;;;5.28;;
11123;SDS011;5616;42.692;23.312;2023-07-22T09:36:10;10.57;;;5.47;;
11123;SDS011;5616;42.692;23.312;2023-07-22T09:38:36;8.77;;;5.55;;
11123;SDS011;5616;42.692;23.312;2023-07-22T09:41:04;10.02;;;5.95;;
11123;SDS011;5616;42.692;23.312;2023-07-22T09:43:31;11.18;;;6.10;;
11123;SDS011;5616;42.692;23.312;2023-07-22T09:46:05;8.98;;;6.13;;
11123;SDS011;5616;42.692;23.312;2023-07-22T09:48:38;14.88;;;6.10;;
11123;SDS011;5616;42.692;23.312;2023-07-22T09:51:05;12.55;;;6.30;;
11123;SDS011;5616;42.692;23.312;2023-07-22T09:53:32;13.23;;;6.30;;
11123;SDS011;5616;42.692;23.312;2023-07-22T09:56:02;13.02;;;6.80;;
11123;SDS011;5616;42.692;23.312;2023-07-22T09:58:30;12.90;;;6.25;;
11123;SDS011;5616;42.692;23.312;2023-07-22T10:00:58;12.02;;;6.38;;
11123;SDS011;5616;42.692;23.312;2023-07-22T10:03:26;17.02;;;6.90;;
11123;SDS011;5616;42.692;23.312;2023-07-22T10:05:55;18.90;;;7.25;;
11123;SDS011;5616;42.692;23.312;2023-07-22T10:08:21;20.83;;;11.38;;
11123;SDS011;5616;42.692;23.312;2023-07-22T10:10:50;13.23;;;6.47;;
11123;SDS011;5616;42.692;23.312;2023-07-22T10:13:18;15.45;;;6.68;;
11123;SDS011;5616;42.692;23.312;2023-07-22T10:15:46;19.65;;;6.50;;
11123;SDS011;5616;42.692;23.312;2023-07-22T10:18:14;18.20;;;7.03;;
11123;SDS011;5616;42.692;23.312;2023-07-22T10:20:41;14.40;;;6.72;;
11123;SDS011;5616;42.692;23.312;2023-07-22T10:23:09;17.13;;;7.72;;
11123;SDS011;5616;42.692;23.312;2023-07-22T10:25:37;13.98;;;6.22;;
11123;SDS011;5616;42.692;23.312;2023-07-22T10:28:05;15.43;;;6.45;;
11123;SDS011;5616;42.692;23.312;2023-07-22T10:30:32;16.48;;;6.57;;
11123;SDS011;5616;42.692;23.312;2023-07-22T10:33:00;23.73;;;6.43;;
11123;SDS011;5616;42.692;23.312;2023-07-22T10:35:34;20.95;;;6.63;;
11123;SDS011;5616;42.692;23.312;2023-07-22T10:38:06;18.75;;;5.90;;
11123;SDS011;5616;42.692;23.312;2023-07-22T10:40:33;14.10;;;5.20;;
11123;SDS011;5616;42.692;23.312;2023-07-22T10:43:10;14.38;;;5.70;;
11123;SDS011;5616;42.692;23.312;2023-07-22T10:45:39;13.48;;;5.35;;
11123;SDS011;5616;42.692;23.312;2023-07-22T10:48:07;28.60;;;16.95;;
11123;SDS011;5616;42.692;23.312;2023-07-22T10:50:38;15.60;;;6.57;;
11123;SDS011;5616;42.692;23.312;2023-07-22T10:53:05;18.65;;;5.88;;
11123;SDS011;5616;42.692;23.312;2023-07-22T10:55:32;13.82;;;6.03;;
11123;SDS011;5616;42.692;23.312;2023-07-22T10:58:03;19.13;;;5.85;;
11123;SDS011;5616;42.692;23.312;2023-07-22T11:00:30;16.63;;;5.80;;
11123;SDS011;5616;42.692;23.312;2023-07-22T11:03:11;16.67;;;5.97;;
11123;SDS011;5616;42.692;23.312;2023-07-22T11:05:47;17.92;;;6.15;;
11123;SDS011;5616;42.692;23.312;2023-07-22T11:08:14;13.68;;;5.65;;
11123;SDS011;5616;42.692;23.312;2023-07-22T11:10:51;17.40;;;6.20;;
11123;SDS011;5616;42.692;23.312;2023-07-22T11:13:18;22.38;;;5.78;;
11123;SDS011;5616;42.692;23.312;2023-07-22T11:15:46;16.13;;;5.60;;
11123;SDS011;5616;42.692;23.312;2023-07-22T11:18:14;18.38;;;5.38;;
11123;SDS011;5616;42.692;23.312;2023-07-22T11:20:41;18.98;;;5.53;;
11123;SDS011;5616;42.692;23.312;2023-07-22T11:23:08;16.42;;;6.53;;
11123;SDS011;5616;42.692;23.312;2023-07-22T11:25:34;21.27;;;6.05;;
11123;SDS011;5616;42.692;23.312;2023-07-22T11:28:01;23.17;;;5.78;;
11123;SDS011;5616;42.692;23.312;2023-07-22T11:30:30;21.23;;;5.55;;
11123;SDS011;5616;42.692;23.312;2023-07-22T11:32:57;18.60;;;5.70;;
11123;SDS011;5616;42.692;23.312;2023-07-22T11:35:27;21.50;;;5.78;;
11123;SDS011;5616;42.692;23.312;2023-07-22T11:37:59;19.98;;;5.90;;
11123;SDS011;5616;42.692;23.312;2023-07-22T11:40:32;16.33;;;5.80;;
11123;SDS011;5616;42.692;23.312;2023-07-22T11:42:58;17.60;;;6.30;;
11123;SDS011;5616;42.692;23.312;2023-07-22T11:45:25;21.67;;;7.07;;
11123;SDS011;5616;42.692;23.312;2023-07-22T11:47:52;13.15;;;6.88;;
11123;SDS011;5616;42.692;23.312;2023-07-22T11:50:19;19.70;;;5.50;;
11123;SDS011;5616;42.692;23.312;2023-07-22T11:52:57;27.65;;;5.97;;
11123;SDS011;5616;42.692;23.312;2023-07-22T11:55:24;23.48;;;6.10;;
11123;SDS011;5616;42.692;23.312;2023-07-22T11:57:51;18.70;;;5.65;;
11123;SDS011;5616;42.692;23.312;2023-07-22T12:00:18;19.95;;;5.18;;
11123;SDS011;5616;42.692;23.312;2023-07-22T12:02:45;13.80;;;5.20;;
11123;SDS011;5616;42.692;23.312;2023-07-22T12:05:12;17.25;;;5.20;;
11123;SDS011;5616;42.692;23.312;2023-07-22T12:07:46;17.70;;;4.80;;
11123;SDS011;5616;42.692;23.312;2023-07-22T12:10:15;14.23;;;4.90;;
11123;SDS011;5616;42.692;23.312;2023-07-22T12:12:42;15.30;;;4.90;;
11123;SDS011;5616;42.692;23.312;2023-07-22T12:15:10;17.02;;;5.55;;
11123;SDS011;5616;42.692;23.312;2023-07-22T12:17:45;15.65;;;4.93;;
11123;SDS011;5616;42.692;23.312;2023-07-22T12:20:12;20.77;;;5.00;;
11123;SDS011;5616;42.692;23.312;2023-07-22T12:22:38;15.27;;;4.82;;
11123;SDS011;5616;42.692;23.312;2023-07-22T12:25:05;22.30;;;9.85;;
11123;SDS011;5616;42.692;23.312;2023-07-22T12:27:33;22.48;;;6.65;;
11123;SDS011;5616;42.692;23.312;2023-07-22T12:30:02;20.98;;;5.45;;
11123;SDS011;5616;42.692;23.312;2023-07-22T12:32:28;16.67;;;4.93;;
11123;SDS011;5616;42.692;23.312;2023-07-22T12:34:55;21.13;;;6.00;;
11123;SDS011;5616;42.692;23.312;2023-07-22T12:37:22;16.15;;;5.47;;
11123;SDS011;5616;42.692;23.312;2023-07-22T12:39:48;16.33;;;6.00;;
11123;SDS011;5616;42.692;23.312;2023-07-22T12:42:15;16.88;;;6.80;;
11123;SDS011;5616;42.692;23.312;2023-07-22T12:44:42;15.30;;;5.53;;
11123;SDS011;5616;42.692;23.312;2023-07-22T12:47:09;14.20;;;4.90;;
11123;SDS011;5616;42.692;23.312;2023-07-22T12:49:35;14.98;;;5.18;;
11123;SDS011;5616;42.692;23.312;2023-07-22T12:52:02;19.95;;;7.95;;
11123;SDS011;5616;42.692;23.312;2023-07-22T12:54:32;16.15;;;5.15;;
11123;SDS011;5616;42.692;23.312;2023-07-22T12:56:59;15.55;;;6.30;;
11123;SDS011;5616;42.692;23.312;2023-07-22T12:59:26;21.15;;;5.82;;
11123;SDS011;5616;42.692;23.312;2023-07-22T13:01:53;13.75;;;4.53;;
11123;SDS011;5616;42.692;23.312;2023-07-22T13:04:20;13.45;;;4.85;;
11123;SDS011;5616;42.692;23.312;2023-07-22T13:06:47;17.55;;;4.85;;
11123;SDS011;5616;42.692;23.312;2023-07-22T13:09:13;20.63;;;5.22;;
11123;SDS011;5616;42.692;23.312;2023-07-22T13:11:40;21.17;;;5.30;;
11123;SDS011;5616;42.692;23.312;2023-07-22T13:14:06;15.93;;;5.13;;
11123;SDS011;5616;42.692;23.312;2023-07-22T13:16:33;21.35;;;5.75;;
11123;SDS011;5616;42.692;23.312;2023-07-22T13:19:00;16.45;;;5.13;;
11123;SDS011;5616;42.692;23.312;2023-07-22T13:21:28;16.40;;;5.22;;
11123;SDS011;5616;42.692;23.312;2023-07-22T13:23:55;16.88;;;5.03;;
11123;SDS011;5616;42.692;23.312;2023-07-22T13:26:21;16.92;;;5.18;;
11123;SDS011;5616;42.692;23.312;2023-07-22T13:28:48;21.95;;;4.72;;
11123;SDS011;5616;42.692;23.312;2023-07-22T13:31:14;14.48;;;5.25;;
11123;SDS011;5616;42.692;23.312;2023-07-22T13:33:41;19.05;;;5.22;;
11123;SDS011;5616;42.692;23.312;2023-07-22T13:36:09;14.40;;;5.28;;
11123;SDS011;5616;42.692;23.312;2023-07-22T13:38:35;14.18;;;5.05;;
11123;SDS011;5616;42.692;23.312;2023-07-22T13:41:02;19.02;;;5.55;;
11123;SDS011;5616;42.692;23.312;2023-07-22T13:43:29;21.83;;;4.68;;
11123;SDS011;5616;42.692;23.312;2023-07-22T13:45:55;18.17;;;4.95;;
11123;SDS011;5616;42.692;23.312;2023-07-22T13:48:22;16.17;;;5.10;;
11123;SDS011;5616;42.692;23.312;2023-07-22T13:50:49;23.40;;;5.07;;
11123;SDS011;5616;42.692;23.312;2023-07-22T13:53:17;24.30;;;5.75;;
11123;SDS011;5616;42.692;23.312;2023-07-22T13:55:43;18.05;;;5.10;;
11123;SDS011;5616;42.692;23.312;2023-07-22T13:58:10;17.10;;;5.50;;
11123;SDS011;5616;42.692;23.312;2023-07-22T14:00:36;21.77;;;5.05;;
11123;SDS011;5616;42.692;23.312;2023-07-22T14:03:03;19.73;;;5.35;;
11123;SDS011;5616;42.692;23.312;2023-07-22T14:05:29;18.65;;;4.85;;
11123;SDS011;5616;42.692;23.312;2023-07-22T14:07:56;16.95;;;5.10;;
11123;SDS011;5616;42.692;23.312;2023-07-22T14:10:24;25.67;;;5.38;;
11123;SDS011;5616;42.692;23.312;2023-07-22T14:12:51;18.70;;;4.78;;
11123;SDS011;5616;42.692;23.312;2023-07-22T14:15:17;14.93;;;5.30;;
11123;SDS011;5616;42.692;23.312;2023-07-22T14:17:44;15.95;;;5.13;;
11123;SDS011;5616;42.692;23.312;2023-07-22T14:20:10;16.90;;;5.30;;
11123;SDS011;5616;42.692;23.312;2023-07-22T14:22:37;23.42;;;5.20;;
11123;SDS011;5616;42.692;23.312;2023-07-22T14:25:04;16.67;;;4.95;;
11123;SDS011;5616;42.692;23.312;2023-07-22T14:27:32;13.70;;;5.22;;
11123;SDS011;5616;42.692;23.312;2023-07-22T14:30:00;19.42;;;4.65;;
11123;SDS011;5616;42.692;23.312;2023-07-22T14:32:26;17.25;;;4.75;;
11123;SDS011;5616;42.692;23.312;2023-07-22T14:34:53;18.98;;;4.85;;
11123;SDS011;5616;42.692;23.312;2023-07-22T14:37:19;15.32;;;5.15;;
11123;SDS011;5616;42.692;23.312;2023-07-22T14:39:46;16.77;;;5.13;;